x

Mid Superior 60nm North Northeast Hancock, Mi (45001) Wave Buoy

2:50am - Wed 1st Jun 2016 All times are CDT. -5 hours from GMT.

  • Sig Wave height 1.6ft
  • Swell Direction
  • Peak Period 4s
  • Average Period 3s
  • Wind
    16mph, 18mph gusts
  • Sea Temp 38°f
  • Air Temp 41°f
  • Sea Pressure 1013.7mb
  • Mid Superior 60nm North Northeast Hancock, Mi
  • Mid Superior 60nm North Northeast Hancock, Mi

More Historic Weather Station data

Upgrade to MSW Pro to gain access to the past 30 days of data for over 8000 Wavebouys and Weather Stations around the globe.

Join Pro

Comparision Forecast

View Surf forecast
   
Wed 06/01 2:50am 1.6ft 4s 3s 16 18 mph 1013.7mb 38f 41f
1:50am 2ft 3s 3s 13 16 mph 1014.5mb 38f 41f
12:50am 1.6ft 3s 3s 16 18 mph 1015.1mb 38f 42f
Tue 05/31 11:50pm 1.6ft 3s 3s 18 20 mph 1015.4mb 38f 44f
10:50pm 1.3ft 3s 3s 18 22 mph 1016mb 38f 45f
9:50pm 1ft 3s 3s 11 13 mph 1017mb 38f 42f
8:50pm 1ft 3s 3s 11 16 mph 1017mb 38f 40f
7:50pm 0.7ft  -  3s 13 16 mph 1016.8mb 38f 41f
6:50pm 0.7ft  -  3s 9 11 mph 1017.3mb 38f 42f
5:50pm 0.7ft  -  3s 13 16 mph 1016.7mb 38f 42f
4:50pm 0.3ft  -  3s 13
mph
1017.4mb 38f 41f
3:50pm 0.3ft  -  3s 9 11 mph 1019.2mb 38f 40f
2:50pm 0.7ft  -  3s 4 7 mph 1020.4mb 38f 40f
1:50pm 0.7ft  -  3s 9 11 mph 1020.6mb 38f 40f
12:50pm 0.7ft  -  3s 9
mph
1021.5mb 38f 40f
11:50am 0.7ft  -  3s 13 16 mph 1021mb 38f 40f
10:50am 0.3ft  -  3s 11 13 mph 1021.6mb 38f 40f
9:50am 0.7ft  -  3s 9
mph
1021.7mb 38f 40f
8:50am 0.7ft  -  3s 7
mph
1022.3mb 38f 40f
7:50am 0.7ft  -  3s 7
mph
1022mb 38f 40f
6:50am 0.7ft  -   -  7 9 mph 1021.7mb 38f 40f
5:50am 0.7ft  -  3s 4 7 mph 1021.8mb 37f 41f
4:50am 0.7ft  -  3s 7
mph
1021mb 37f 40f
3:50am 0.7ft  -  3s 9
mph
1020.6mb 38f 40f
2:50am 1ft 3s 3s 9
mph
1020.5mb 38f 40f
1:50am 1.3ft 4s 3s 11 13 mph 1020.5mb 38f 42f
12:50am 1.3ft 4s 3s 9
mph
1020.6mb 38f 41f
Mon 05/30 11:50pm 1.6ft 4s 3s 7 9 mph 1020.2mb 38f 41f
10:50pm 2ft 4s 4s 9 11 mph 1019.5mb 38f 41f
9:50pm 2.5ft 4s 4s 13 16 mph 1018.7mb 38f 43f
8:50pm 3ft 4s 4s 16 18 mph 1017.7mb 38f 43f
7:50pm 1.3ft 4s 3s 27 29 mph 1016.1mb 38f 45f
6:50pm 1.3ft 4s 4s 13 16 mph 1016.1mb 38f 44f
5:50pm 1.3ft 4s 3s 7
mph
1015.7mb 38f 46f
4:50pm 1.3ft 4s 3s 7
mph
1015.1mb 38f 42f
3:50pm 1.6ft 4s 3s 9
mph
1014.2mb 38f 42f
2:50pm 1.6ft 4s 3s 11 13 mph 1013.9mb 38f 42f
1:50pm 2ft 4s 3s 16
mph
1013mb 38f 42f
12:50pm 1.6ft 4s 3s 13 16 mph 1012.8mb 38f 41f
11:50am 1.6ft 4s 3s 11 13 mph 1012.8mb 38f 41f
10:50am 1.3ft 4s 3s 11 13 mph 1012.6mb 38f 41f
9:50am 1.6ft 4s 4s 13 16 mph 1012.5mb 38f 44f
8:50am 1.6ft 4s 4s 4 7 mph 1012.3mb 38f 43f
7:50am 1.6ft 4s 4s 9 11 mph 1011.9mb 38f 42f
6:50am 1.6ft 5s 4s 11
mph
1011.2mb 38f 43f
5:50am 1.6ft 5s 4s 11 13 mph 1010.9mb 38f 43f
4:50am 2ft 5s 4s 11 13 mph 1010.8mb 38f 42f
3:50am 2ft 5s 4s 16 18 mph 1010.4mb 38f 44f
2:50am 2ft 5s 4s 11 13 mph 1010.6mb 38f 42f
1:50am 1.3ft 4s 3s 11
mph
1010.4mb 38f 43f
12:50am 1ft 4s 3s 9 11 mph 1010.5mb 38f 41f
Sun 05/29 11:50pm 1ft 3s 3s 9 11 mph 1010.6mb 38f 42f
10:50pm 1ft 4s 3s 4
mph
1010.4mb 38f 40f
9:50pm 1ft 3s 3s 2 4 mph 1010mb 38f 40f
8:50pm 1ft 3s 3s 4 7 mph 1009.3mb 38f 40f
7:50pm 1ft 4s 3s 4 7 mph 1008.9mb 38f 40f
5:50pm 1ft 3s 3s 7
mph
1008.8mb 38f 40f
4:50pm 1.3ft 3s 3s 7
mph
1008.6mb 38f 40f
3:50pm 1.3ft 3s 3s 7 9 mph 1008.9mb 38f 40f
2:50pm 1ft 3s 3s 9 11 mph 1009.1mb 38f 40f
1:50pm 1ft 3s 3s 11 13 mph 1008.9mb 38f 40f
12:50pm 1ft 4s 3s 7 9 mph 1008.9mb 38f 40f
11:50am 1ft 4s 3s 9 11 mph 1008.7mb 38f 40f
10:50am 1ft 4s 4s 9 11 mph 1008.4mb 38f 42f
9:50am 1ft 4s 4s  -  2 mph 1008.5mb 38f 42f
8:50am 1ft 4s 4s 4
mph
1008.9mb 38f 41f
7:50am 1ft 4s 4s 4
mph
1009mb 38f 40f
6:50am 1ft 4s 4s 7 9 mph 1008.6mb 38f 40f
5:50am 1ft 4s 4s 7 9 mph 1008.6mb 38f 41f
4:50am 1ft 4s 4s  -  2 mph 1008.4mb 38f 42f
3:50am 0.7ft  -  4s 2 4 mph 1009.1mb 38f 40f
2:50am 1ft 4s 3s 4
mph
1009.5mb 38f 40f
1:50am 1ft 4s 3s 4 7 mph 1010.2mb 38f 40f
12:50am 1ft 4s 3s 4
mph
1010mb 38f 40f
Sat 05/28 11:50pm 1ft 4s 3s 7 18 mph 1010.1mb 38f 40f
10:50pm 1ft 4s 3s 2 4 mph 1009.3mb 38f 41f
9:50pm 1ft 4s 3s 7
mph
1009.4mb 38f 42f
8:50pm 1ft 4s 3s 4 7 mph 1009.5mb 38f 42f
7:50pm 1ft 4s 3s 7 11 mph 1009.3mb 38f 44f
6:50pm 1.3ft 4s 3s 11 13 mph 1009.1mb 38f 44f
5:50pm 1.3ft 4s 3s 9 13 mph 1009.4mb 38f 41f
4:50pm 1.3ft 4s 3s 11 13 mph 1009.8mb 38f 42f
3:50pm 1.3ft 4s 3s 11 13 mph 1009.5mb 38f 41f
2:50pm 1ft 4s 4s 11 13 mph 1009.8mb 38f 40f
1:50pm 1ft 4s 3s 7
mph
1010.2mb 38f 41f
12:50pm 1.3ft 4s 3s 9 11 mph 1010.2mb 38f 42f
11:50am 1ft 4s 3s 2 7 mph 1010.6mb 38f 41f
10:50am 1ft 3s 3s 7 9 mph 1010.5mb 38f 40f
9:50am 1.3ft 4s 3s 9 11 mph 1010.5mb 38f 40f
8:50am 1.3ft 3s 3s 7 9 mph 1010.1mb 38f 41f